sensor_id;sensor_type;location;lat;lon;timestamp;temperature;humidity
43894;DHT22;29556;50.846;4.442;2022-10-31T00:00:00;16.20;91.10
43894;DHT22;29556;50.846;4.442;2022-10-31T00:02:26;16.10;91.20
43894;DHT22;29556;50.846;4.442;2022-10-31T00:04:54;16.10;91.20
43894;DHT22;29556;50.846;4.442;2022-10-31T00:07:19;16.10;91.20
43894;DHT22;29556;50.846;4.442;2022-10-31T00:09:45;16.10;91.20
43894;DHT22;29556;50.846;4.442;2022-10-31T00:12:11;16.10;91.10
43894;DHT22;29556;50.846;4.442;2022-10-31T00:14:36;16.10;91.20
43894;DHT22;29556;50.846;4.442;2022-10-31T00:17:03;16.00;91.10
43894;DHT22;29556;50.846;4.442;2022-10-31T00:19:28;16.00;91.20
43894;DHT22;29556;50.846;4.442;2022-10-31T00:21:54;15.90;91.10
43894;DHT22;29556;50.846;4.442;2022-10-31T00:24:20;16.00;91.20
43894;DHT22;29556;50.846;4.442;2022-10-31T00:26:46;15.90;91.10
43894;DHT22;29556;50.846;4.442;2022-10-31T00:29:11;16.00;91.10
43894;DHT22;29556;50.846;4.442;2022-10-31T00:31:40;15.90;91.10
43894;DHT22;29556;50.846;4.442;2022-10-31T00:34:05;16.00;91.20
43894;DHT22;29556;50.846;4.442;2022-10-31T00:36:31;15.80;91.10
43894;DHT22;29556;50.846;4.442;2022-10-31T00:38:58;15.80;91.10
43894;DHT22;29556;50.846;4.442;2022-10-31T00:41:23;15.70;91.00
43894;DHT22;29556;50.846;4.442;2022-10-31T00:43:49;15.70;91.00
43894;DHT22;29556;50.846;4.442;2022-10-31T00:46:16;15.80;91.10
43894;DHT22;29556;50.846;4.442;2022-10-31T00:48:42;15.60;91.00
43894;DHT22;29556;50.846;4.442;2022-10-31T00:51:08;15.60;91.00
43894;DHT22;29556;50.846;4.442;2022-10-31T00:53:34;15.50;90.90
43894;DHT22;29556;50.846;4.442;2022-10-31T00:56:00;15.50;90.90
43894;DHT22;29556;50.846;4.442;2022-10-31T00:58:26;15.40;90.90
43894;DHT22;29556;50.846;4.442;2022-10-31T01:00:51;15.50;91.00
43894;DHT22;29556;50.846;4.442;2022-10-31T01:03:31;15.50;91.00
43894;DHT22;29556;50.846;4.442;2022-10-31T01:06:08;15.40;90.90
43894;DHT22;29556;50.846;4.442;2022-10-31T01:08:36;15.30;90.90
43894;DHT22;29556;50.846;4.442;2022-10-31T01:11:06;15.30;91.00
43894;DHT22;29556;50.846;4.442;2022-10-31T01:13:33;15.20;91.00
43894;DHT22;29556;50.846;4.442;2022-10-31T01:16:00;15.20;91.00
43894;DHT22;29556;50.846;4.442;2022-10-31T01:18:26;15.20;91.00
43894;DHT22;29556;50.846;4.442;2022-10-31T01:21:04;15.10;91.00
43894;DHT22;29556;50.846;4.442;2022-10-31T01:23:31;15.10;91.00
43894;DHT22;29556;50.846;4.442;2022-10-31T01:26:09;15.10;91.40
43894;DHT22;29556;50.846;4.442;2022-10-31T01:28:37;15.20;91.20
43894;DHT22;29556;50.846;4.442;2022-10-31T01:31:05;15.10;91.10
43894;DHT22;29556;50.846;4.442;2022-10-31T01:33:31;15.10;91.10
43894;DHT22;29556;50.846;4.442;2022-10-31T01:35:57;15.10;91.50
43894;DHT22;29556;50.846;4.442;2022-10-31T01:38:23;15.10;91.10
43894;DHT22;29556;50.846;4.442;2022-10-31T01:40:49;15.10;91.20
43894;DHT22;29556;50.846;4.442;2022-10-31T01:43:15;15.10;91.20
43894;DHT22;29556;50.846;4.442;2022-10-31T01:45:46;15.10;91.10
43894;DHT22;29556;50.846;4.442;2022-10-31T01:48:15;15.10;91.20
43894;DHT22;29556;50.846;4.442;2022-10-31T01:50:45;15.00;91.10
43894;DHT22;29556;50.846;4.442;2022-10-31T01:53:12;15.00;91.10
43894;DHT22;29556;50.846;4.442;2022-10-31T01:55:44;15.00;91.10
43894;DHT22;29556;50.846;4.442;2022-10-31T01:58:13;15.00;91.10
43894;DHT22;29556;50.846;4.442;2022-10-31T02:00:43;14.90;91.00
43894;DHT22;29556;50.846;4.442;2022-10-31T02:03:10;14.90;91.00
43894;DHT22;29556;50.846;4.442;2022-10-31T02:05:36;14.80;91.00
43894;DHT22;29556;50.846;4.442;2022-10-31T02:08:18;14.80;91.10
43894;DHT22;29556;50.846;4.442;2022-10-31T02:10:45;14.80;91.10
43894;DHT22;29556;50.846;4.442;2022-10-31T02:13:11;14.80;91.10
43894;DHT22;29556;50.846;4.442;2022-10-31T02:15:39;14.60;91.10
43894;DHT22;29556;50.846;4.442;2022-10-31T02:18:07;14.60;91.10
43894;DHT22;29556;50.846;4.442;2022-10-31T02:40:45;14.50;91.10
43894;DHT22;29556;50.846;4.442;2022-10-31T02:43:21;14.50;91.10
43894;DHT22;29556;50.846;4.442;2022-10-31T02:45:58;14.40;91.10
43894;DHT22;29556;50.846;4.442;2022-10-31T02:48:28;14.40;91.10
43894;DHT22;29556;50.846;4.442;2022-10-31T02:51:00;14.30;91.10
43894;DHT22;29556;50.846;4.442;2022-10-31T02:53:26;14.30;91.10
43894;DHT22;29556;50.846;4.442;2022-10-31T02:56:17;14.30;91.00
43894;DHT22;29556;50.846;4.442;2022-10-31T02:58:51;14.30;91.10
43894;DHT22;29556;50.846;4.442;2022-10-31T03:01:46;14.20;91.40
43894;DHT22;29556;50.846;4.442;2022-10-31T03:09:27;14.20;91.30
43894;DHT22;29556;50.846;4.442;2022-10-31T03:17:33;14.40;91.20
43894;DHT22;29556;50.846;4.442;2022-10-31T03:20:00;14.20;91.10
43894;DHT22;29556;50.846;4.442;2022-10-31T03:22:30;14.10;91.10
43894;DHT22;29556;50.846;4.442;2022-10-31T03:24:58;14.20;91.10
43894;DHT22;29556;50.846;4.442;2022-10-31T03:27:27;14.20;91.00
43894;DHT22;29556;50.846;4.442;2022-10-31T03:29:56;14.10;91.00
43894;DHT22;29556;50.846;4.442;2022-10-31T03:32:34;14.10;91.00
43894;DHT22;29556;50.846;4.442;2022-10-31T03:35:03;14.10;91.10
43894;DHT22;29556;50.846;4.442;2022-10-31T03:37:33;14.10;91.00
43894;DHT22;29556;50.846;4.442;2022-10-31T03:40:01;14.00;91.00
43894;DHT22;29556;50.846;4.442;2022-10-31T03:42:30;14.00;91.00
43894;DHT22;29556;50.846;4.442;2022-10-31T03:45:01;14.00;91.00
43894;DHT22;29556;50.846;4.442;2022-10-31T03:47:29;14.00;91.00
43894;DHT22;29556;50.846;4.442;2022-10-31T03:49:55;14.00;91.00
43894;DHT22;29556;50.846;4.442;2022-10-31T03:52:28;14.00;91.00
43894;DHT22;29556;50.846;4.442;2022-10-31T03:57:48;13.90;90.90
43894;DHT22;29556;50.846;4.442;2022-10-31T04:00:18;13.90;91.00
43894;DHT22;29556;50.846;4.442;2022-10-31T04:02:52;13.90;91.00
43894;DHT22;29556;50.846;4.442;2022-10-31T04:05:21;13.90;91.00
43894;DHT22;29556;50.846;4.442;2022-10-31T04:07:49;13.80;91.00
43894;DHT22;29556;50.846;4.442;2022-10-31T04:10:16;13.90;91.00
43894;DHT22;29556;50.846;4.442;2022-10-31T04:12:48;13.80;91.00
43894;DHT22;29556;50.846;4.442;2022-10-31T04:15:15;13.90;91.10
43894;DHT22;29556;50.846;4.442;2022-10-31T04:17:42;13.90;91.00
43894;DHT22;29556;50.846;4.442;2022-10-31T04:20:09;13.80;91.00
43894;DHT22;29556;50.846;4.442;2022-10-31T04:22:35;13.80;91.00
43894;DHT22;29556;50.846;4.442;2022-10-31T04:25:01;13.70;91.00
43894;DHT22;29556;50.846;4.442;2022-10-31T04:27:27;13.80;91.00
43894;DHT22;29556;50.846;4.442;2022-10-31T04:29:53;13.70;91.00
43894;DHT22;29556;50.846;4.442;2022-10-31T04:32:18;13.70;91.00
43894;DHT22;29556;50.846;4.442;2022-10-31T04:34:44;13.70;91.00
43894;DHT22;29556;50.846;4.442;2022-10-31T04:37:10;13.70;91.00
43894;DHT22;29556;50.846;4.442;2022-10-31T04:39:37;13.70;91.00
43894;DHT22;29556;50.846;4.442;2022-10-31T04:42:03;13.70;91.00
43894;DHT22;29556;50.846;4.442;2022-10-31T04:44:29;13.70;91.00
43894;DHT22;29556;50.846;4.442;2022-10-31T04:46:54;13.70;91.00
43894;DHT22;29556;50.846;4.442;2022-10-31T04:49:21;13.70;91.00
43894;DHT22;29556;50.846;4.442;2022-10-31T04:51:46;13.60;91.00
43894;DHT22;29556;50.846;4.442;2022-10-31T04:54:12;13.60;90.90
43894;DHT22;29556;50.846;4.442;2022-10-31T04:56:38;13.60;91.00
43894;DHT22;29556;50.846;4.442;2022-10-31T04:59:03;13.70;91.10
43894;DHT22;29556;50.846;4.442;2022-10-31T05:01:29;13.50;91.00
43894;DHT22;29556;50.846;4.442;2022-10-31T05:03:54;13.60;91.00
43894;DHT22;29556;50.846;4.442;2022-10-31T05:06:20;13.60;91.00
43894;DHT22;29556;50.846;4.442;2022-10-31T05:08:47;13.50;91.10
43894;DHT22;29556;50.846;4.442;2022-10-31T05:11:12;13.50;91.10
43894;DHT22;29556;50.846;4.442;2022-10-31T05:13:38;13.70;91.20
43894;DHT22;29556;50.846;4.442;2022-10-31T05:16:04;13.60;91.20
43894;DHT22;29556;50.846;4.442;2022-10-31T05:18:30;13.60;91.20
43894;DHT22;29556;50.846;4.442;2022-10-31T05:20:55;13.60;91.20
43894;DHT22;29556;50.846;4.442;2022-10-31T05:23:21;13.80;91.30
43894;DHT22;29556;50.846;4.442;2022-10-31T05:25:47;13.70;91.30
43894;DHT22;29556;50.846;4.442;2022-10-31T05:28:12;13.80;91.40
43894;DHT22;29556;50.846;4.442;2022-10-31T05:30:38;13.80;91.40
43894;DHT22;29556;50.846;4.442;2022-10-31T05:33:04;13.80;91.40
43894;DHT22;29556;50.846;4.442;2022-10-31T05:35:31;13.90;91.40
43894;DHT22;29556;50.846;4.442;2022-10-31T05:37:59;13.80;91.40
43894;DHT22;29556;50.846;4.442;2022-10-31T05:40:26;13.80;91.40
43894;DHT22;29556;50.846;4.442;2022-10-31T05:42:54;13.80;91.40
43894;DHT22;29556;50.846;4.442;2022-10-31T05:45:21;13.80;91.40
43894;DHT22;29556;50.846;4.442;2022-10-31T05:47:55;13.80;91.40
43894;DHT22;29556;50.846;4.442;2022-10-31T05:50:22;13.90;91.40
43894;DHT22;29556;50.846;4.442;2022-10-31T05:52:55;13.80;91.30
43894;DHT22;29556;50.846;4.442;2022-10-31T05:55:21;13.80;91.40
43894;DHT22;29556;50.846;4.442;2022-10-31T05:57:47;13.90;91.40
43894;DHT22;29556;50.846;4.442;2022-10-31T06:00:13;13.80;91.40
43894;DHT22;29556;50.846;4.442;2022-10-31T06:02:38;13.80;91.50
43894;DHT22;29556;50.846;4.442;2022-10-31T06:05:04;13.80;91.50
43894;DHT22;29556;50.846;4.442;2022-10-31T06:07:34;13.90;91.60
43894;DHT22;29556;50.846;4.442;2022-10-31T06:10:00;13.90;91.60
43894;DHT22;29556;50.846;4.442;2022-10-31T06:12:26;14.00;91.70
43894;DHT22;29556;50.846;4.442;2022-10-31T06:14:52;14.00;91.70
43894;DHT22;29556;50.846;4.442;2022-10-31T06:17:17;14.00;91.70
43894;DHT22;29556;50.846;4.442;2022-10-31T06:19:43;14.00;91.70
43894;DHT22;29556;50.846;4.442;2022-10-31T06:22:08;14.00;91.70
43894;DHT22;29556;50.846;4.442;2022-10-31T06:24:37;14.10;91.80
43894;DHT22;29556;50.846;4.442;2022-10-31T06:27:05;14.20;91.80
43894;DHT22;29556;50.846;4.442;2022-10-31T06:29:31;14.30;91.90
43894;DHT22;29556;50.846;4.442;2022-10-31T06:31:56;14.20;91.80
43894;DHT22;29556;50.846;4.442;2022-10-31T06:34:24;14.20;91.80
43894;DHT22;29556;50.846;4.442;2022-10-31T06:36:50;14.20;91.80
43894;DHT22;29556;50.846;4.442;2022-10-31T06:39:15;14.20;91.80
43894;DHT22;29556;50.846;4.442;2022-10-31T06:41:41;14.20;92.20
43894;DHT22;29556;50.846;4.442;2022-10-31T06:44:07;14.20;91.90
43894;DHT22;29556;50.846;4.442;2022-10-31T06:46:33;14.30;92.00
43894;DHT22;29556;50.846;4.442;2022-10-31T06:48:58;14.40;92.10
43894;DHT22;29556;50.846;4.442;2022-10-31T06:51:24;14.40;92.00
43894;DHT22;29556;50.846;4.442;2022-10-31T06:53:51;14.40;92.00
43894;DHT22;29556;50.846;4.442;2022-10-31T06:56:16;14.30;91.90
43894;DHT22;29556;50.846;4.442;2022-10-31T06:58:42;14.30;91.80
43894;DHT22;29556;50.846;4.442;2022-10-31T07:01:08;14.40;91.90
43894;DHT22;29556;50.846;4.442;2022-10-31T07:03:33;14.40;91.90
43894;DHT22;29556;50.846;4.442;2022-10-31T07:06:00;14.50;92.00
43894;DHT22;29556;50.846;4.442;2022-10-31T07:08:26;14.40;92.00
43894;DHT22;29556;50.846;4.442;2022-10-31T07:10:54;14.40;91.90
43894;DHT22;29556;50.846;4.442;2022-10-31T07:13:21;14.50;92.00
43894;DHT22;29556;50.846;4.442;2022-10-31T07:15:54;14.50;92.10
43894;DHT22;29556;50.846;4.442;2022-10-31T07:18:20;14.60;92.20
43894;DHT22;29556;50.846;4.442;2022-10-31T07:20:47;14.70;92.20
43894;DHT22;29556;50.846;4.442;2022-10-31T07:23:13;14.70;92.20
43894;DHT22;29556;50.846;4.442;2022-10-31T07:25:39;14.70;92.30
43894;DHT22;29556;50.846;4.442;2022-10-31T07:28:05;14.80;92.20
43894;DHT22;29556;50.846;4.442;2022-10-31T07:30:31;14.70;92.20
43894;DHT22;29556;50.846;4.442;2022-10-31T07:32:57;14.80;92.30
43894;DHT22;29556;50.846;4.442;2022-10-31T07:35:24;14.90;92.20
43894;DHT22;29556;50.846;4.442;2022-10-31T07:37:50;14.80;92.20
43894;DHT22;29556;50.846;4.442;2022-10-31T07:40:17;14.90;92.20
43894;DHT22;29556;50.846;4.442;2022-10-31T07:42:44;14.90;92.30
43894;DHT22;29556;50.846;4.442;2022-10-31T07:45:13;14.90;92.20
43894;DHT22;29556;50.846;4.442;2022-10-31T07:47:52;15.00;92.40
43894;DHT22;29556;50.846;4.442;2022-10-31T07:50:23;15.10;92.40
43894;DHT22;29556;50.846;4.442;2022-10-31T07:55:44;15.10;92.20
43894;DHT22;29556;50.846;4.442;2022-10-31T07:58:11;15.20;92.40
43894;DHT22;29556;50.846;4.442;2022-10-31T08:00:38;15.20;92.50
43894;DHT22;29556;50.846;4.442;2022-10-31T08:03:09;15.20;92.60
43894;DHT22;29556;50.846;4.442;2022-10-31T08:05:37;15.30;92.70
43894;DHT22;29556;50.846;4.442;2022-10-31T08:08:15;15.40;92.70
43894;DHT22;29556;50.846;4.442;2022-10-31T08:10:54;15.40;92.80
43894;DHT22;29556;50.846;4.442;2022-10-31T08:13:28;15.50;92.80
43894;DHT22;29556;50.846;4.442;2022-10-31T08:16:10;15.50;92.90
43894;DHT22;29556;50.846;4.442;2022-10-31T08:18:51;15.60;92.90
43894;DHT22;29556;50.846;4.442;2022-10-31T08:21:17;15.60;92.90
43894;DHT22;29556;50.846;4.442;2022-10-31T08:23:43;15.60;92.90
43894;DHT22;29556;50.846;4.442;2022-10-31T08:26:08;15.70;93.00
43894;DHT22;29556;50.846;4.442;2022-10-31T08:28:49;15.80;93.10
43894;DHT22;29556;50.846;4.442;2022-10-31T08:31:37;15.90;93.00
43894;DHT22;29556;50.846;4.442;2022-10-31T08:34:12;15.80;93.00
43894;DHT22;29556;50.846;4.442;2022-10-31T08:37:09;15.90;93.00
43894;DHT22;29556;50.846;4.442;2022-10-31T08:39:38;15.90;92.80
43894;DHT22;29556;50.846;4.442;2022-10-31T08:42:33;15.90;92.90
43894;DHT22;29556;50.846;4.442;2022-10-31T08:45:28;16.00;93.30
43894;DHT22;29556;50.846;4.442;2022-10-31T08:47:59;16.00;93.10
43894;DHT22;29556;50.846;4.442;2022-10-31T08:50:26;16.10;93.20
43894;DHT22;29556;50.846;4.442;2022-10-31T08:52:52;16.10;93.20
43894;DHT22;29556;50.846;4.442;2022-10-31T08:55:18;16.20;93.20
43894;DHT22;29556;50.846;4.442;2022-10-31T08:57:44;16.20;93.20
43894;DHT22;29556;50.846;4.442;2022-10-31T09:00:10;16.30;93.30
43894;DHT22;29556;50.846;4.442;2022-10-31T09:02:36;16.40;93.30
43894;DHT22;29556;50.846;4.442;2022-10-31T09:05:04;16.40;93.30
43894;DHT22;29556;50.846;4.442;2022-10-31T09:07:29;16.40;93.20
43894;DHT22;29556;50.846;4.442;2022-10-31T09:09:55;16.60;93.30
43894;DHT22;29556;50.846;4.442;2022-10-31T09:12:21;16.60;93.30
43894;DHT22;29556;50.846;4.442;2022-10-31T09:14:53;16.70;93.40
43894;DHT22;29556;50.846;4.442;2022-10-31T09:17:23;16.90;93.60
43894;DHT22;29556;50.846;4.442;2022-10-31T09:19:59;16.90;93.60
43894;DHT22;29556;50.846;4.442;2022-10-31T09:22:24;17.00;93.60
43894;DHT22;29556;50.846;4.442;2022-10-31T09:24:51;17.00;93.60
43894;DHT22;29556;50.846;4.442;2022-10-31T09:27:17;17.10;93.60
43894;DHT22;29556;50.846;4.442;2022-10-31T09:29:43;17.10;93.60
43894;DHT22;29556;50.846;4.442;2022-10-31T09:32:09;17.10;93.50
43894;DHT22;29556;50.846;4.442;2022-10-31T09:34:36;17.10;93.50
43894;DHT22;29556;50.846;4.442;2022-10-31T09:37:05;17.20;93.50
43894;DHT22;29556;50.846;4.442;2022-10-31T09:39:30;17.10;93.50
43894;DHT22;29556;50.846;4.442;2022-10-31T09:45:00;17.10;93.40
43894;DHT22;29556;50.846;4.442;2022-10-31T09:47:52;17.10;93.30
43894;DHT22;29556;50.846;4.442;2022-10-31T09:50:25;17.10;93.30
43894;DHT22;29556;50.846;4.442;2022-10-31T09:53:00;17.10;93.40
43894;DHT22;29556;50.846;4.442;2022-10-31T09:55:40;17.10;93.40
43894;DHT22;29556;50.846;4.442;2022-10-31T09:58:14;17.20;93.40
43894;DHT22;29556;50.846;4.442;2022-10-31T10:00:42;17.10;93.10
43894;DHT22;29556;50.846;4.442;2022-10-31T10:03:24;17.10;93.50
43894;DHT22;29556;50.846;4.442;2022-10-31T10:06:13;17.20;93.60
43894;DHT22;29556;50.846;4.442;2022-10-31T10:08:40;17.30;93.70
43894;DHT22;29556;50.846;4.442;2022-10-31T10:20:11;17.70;93.80
43894;DHT22;29556;50.846;4.442;2022-10-31T10:22:43;17.80;93.90
43894;DHT22;29556;50.846;4.442;2022-10-31T10:25:23;17.90;94.00
43894;DHT22;29556;50.846;4.442;2022-10-31T10:30:35;18.10;94.00
43894;DHT22;29556;50.846;4.442;2022-10-31T10:33:16;18.20;94.10
43894;DHT22;29556;50.846;4.442;2022-10-31T10:35:55;18.30;94.00
43894;DHT22;29556;50.846;4.442;2022-10-31T10:38:49;18.30;94.00
43894;DHT22;29556;50.846;4.442;2022-10-31T10:41:31;18.40;93.70
43894;DHT22;29556;50.846;4.442;2022-10-31T10:43:58;18.40;93.70
43894;DHT22;29556;50.846;4.442;2022-10-31T10:46:42;18.50;93.60
43894;DHT22;29556;50.846;4.442;2022-10-31T10:52:25;18.50;93.50
43894;DHT22;29556;50.846;4.442;2022-10-31T11:00:27;18.60;93.50
43894;DHT22;29556;50.846;4.442;2022-10-31T11:02:59;18.60;93.00
43894;DHT22;29556;50.846;4.442;2022-10-31T11:05:43;18.60;93.10
43894;DHT22;29556;50.846;4.442;2022-10-31T11:13:46;18.70;92.80
43894;DHT22;29556;50.846;4.442;2022-10-31T11:16:30;18.70;92.80
43894;DHT22;29556;50.846;4.442;2022-10-31T11:19:21;18.90;93.00
43894;DHT22;29556;50.846;4.442;2022-10-31T11:21:51;18.90;92.80
43894;DHT22;29556;50.846;4.442;2022-10-31T11:24:18;19.00;92.90
43894;DHT22;29556;50.846;4.442;2022-10-31T11:26:47;19.00;92.70
43894;DHT22;29556;50.846;4.442;2022-10-31T11:29:25;19.00;92.50
43894;DHT22;29556;50.846;4.442;2022-10-31T11:31:56;19.00;92.40
43894;DHT22;29556;50.846;4.442;2022-10-31T11:34:38;18.90;92.30
43894;DHT22;29556;50.846;4.442;2022-10-31T11:37:32;19.00;92.50
43894;DHT22;29556;50.846;4.442;2022-10-31T11:40:03;19.00;92.40
43894;DHT22;29556;50.846;4.442;2022-10-31T11:42:39;19.00;92.40
43894;DHT22;29556;50.846;4.442;2022-10-31T11:47:43;19.10;92.30
43894;DHT22;29556;50.846;4.442;2022-10-31T11:50:12;19.10;92.30
43894;DHT22;29556;50.846;4.442;2022-10-31T11:52:43;19.10;92.30
43894;DHT22;29556;50.846;4.442;2022-10-31T11:57:50;19.30;92.40
43894;DHT22;29556;50.846;4.442;2022-10-31T12:00:38;19.40;92.30
43894;DHT22;29556;50.846;4.442;2022-10-31T12:03:33;19.40;92.30
43894;DHT22;29556;50.846;4.442;2022-10-31T12:06:09;19.50;92.00
43894;DHT22;29556;50.846;4.442;2022-10-31T12:08:39;19.50;92.00
43894;DHT22;29556;50.846;4.442;2022-10-31T12:14:09;19.60;91.90
43894;DHT22;29556;50.846;4.442;2022-10-31T12:16:53;19.60;91.80
43894;DHT22;29556;50.846;4.442;2022-10-31T12:56:18;19.30;91.00
43894;DHT22;29556;50.846;4.442;2022-10-31T12:58:59;19.20;90.90
43894;DHT22;29556;50.846;4.442;2022-10-31T13:01:40;19.20;91.10
43894;DHT22;29556;50.846;4.442;2022-10-31T13:04:18;19.20;91.00
43894;DHT22;29556;50.846;4.442;2022-10-31T13:06:55;19.20;91.10
43894;DHT22;29556;50.846;4.442;2022-10-31T13:09:52;19.20;91.20
43894;DHT22;29556;50.846;4.442;2022-10-31T13:12:20;19.30;91.20
43894;DHT22;29556;50.846;4.442;2022-10-31T13:14:56;19.30;91.30
43894;DHT22;29556;50.846;4.442;2022-10-31T13:17:34;19.20;91.00
43894;DHT22;29556;50.846;4.442;2022-10-31T13:20:30;19.20;91.10
43894;DHT22;29556;50.846;4.442;2022-10-31T13:23:16;19.20;90.70
43894;DHT22;29556;50.846;4.442;2022-10-31T13:25:48;19.10;90.80
43894;DHT22;29556;50.846;4.442;2022-10-31T13:28:44;19.10;90.20
43894;DHT22;29556;50.846;4.442;2022-10-31T13:31:11;19.00;90.40
43894;DHT22;29556;50.846;4.442;2022-10-31T13:33:49;19.00;90.50
43894;DHT22;29556;50.846;4.442;2022-10-31T13:36:36;19.10;90.50
43894;DHT22;29556;50.846;4.442;2022-10-31T13:41:57;19.00;90.00
43894;DHT22;29556;50.846;4.442;2022-10-31T13:44:28;19.00;90.40
43894;DHT22;29556;50.846;4.442;2022-10-31T13:46:57;19.10;90.30
43894;DHT22;29556;50.846;4.442;2022-10-31T13:54:38;19.10;90.60
43894;DHT22;29556;50.846;4.442;2022-10-31T13:57:35;19.10;90.50
43894;DHT22;29556;50.846;4.442;2022-10-31T14:00:22;19.10;90.60
43894;DHT22;29556;50.846;4.442;2022-10-31T14:02:51;19.10;90.70
43894;DHT22;29556;50.846;4.442;2022-10-31T14:05:31;19.10;90.60
43894;DHT22;29556;50.846;4.442;2022-10-31T14:08:04;19.10;90.40
43894;DHT22;29556;50.846;4.442;2022-10-31T14:10:33;19.10;90.60
43894;DHT22;29556;50.846;4.442;2022-10-31T14:16:19;19.10;90.60
43894;DHT22;29556;50.846;4.442;2022-10-31T14:18:56;19.10;90.70
43894;DHT22;29556;50.846;4.442;2022-10-31T14:23:52;19.10;90.70
43894;DHT22;29556;50.846;4.442;2022-10-31T14:28:59;19.10;90.60
43894;DHT22;29556;50.846;4.442;2022-10-31T14:39:53;19.10;90.70
43894;DHT22;29556;50.846;4.442;2022-10-31T14:45:31;19.00;90.70
43894;DHT22;29556;50.846;4.442;2022-10-31T14:50:57;19.00;90.60
43894;DHT22;29556;50.846;4.442;2022-10-31T14:53:27;18.90;90.50
43894;DHT22;29556;50.846;4.442;2022-10-31T14:55:56;18.90;90.50
43894;DHT22;29556;50.846;4.442;2022-10-31T15:00:59;18.80;90.50
43894;DHT22;29556;50.846;4.442;2022-10-31T15:03:30;18.80;90.80
43894;DHT22;29556;50.846;4.442;2022-10-31T15:06:00;18.80;90.70
43894;DHT22;29556;50.846;4.442;2022-10-31T15:08:32;18.80;90.50
43894;DHT22;29556;50.846;4.442;2022-10-31T15:10:58;18.80;90.60
43894;DHT22;29556;50.846;4.442;2022-10-31T15:13:27;18.80;90.70
43894;DHT22;29556;50.846;4.442;2022-10-31T15:15:55;18.80;90.60
43894;DHT22;29556;50.846;4.442;2022-10-31T15:18:54;18.80;90.60
43894;DHT22;29556;50.846;4.442;2022-10-31T15:21:21;18.70;90.70
43894;DHT22;29556;50.846;4.442;2022-10-31T15:23:49;18.70;90.60
43894;DHT22;29556;50.846;4.442;2022-10-31T15:26:18;18.60;90.60
43894;DHT22;29556;50.846;4.442;2022-10-31T15:28:45;18.60;90.70
43894;DHT22;29556;50.846;4.442;2022-10-31T15:31:16;18.50;90.70
43894;DHT22;29556;50.846;4.442;2022-10-31T15:33:46;18.40;90.60
43894;DHT22;29556;50.846;4.442;2022-10-31T15:36:23;18.40;90.70
43894;DHT22;29556;50.846;4.442;2022-10-31T15:38:50;18.30;90.70
43894;DHT22;29556;50.846;4.442;2022-10-31T15:44:16;18.20;90.80
43894;DHT22;29556;50.846;4.442;2022-10-31T15:49:52;18.10;90.90
43894;DHT22;29556;50.846;4.442;2022-10-31T15:52:32;18.10;90.90
43894;DHT22;29556;50.846;4.442;2022-10-31T15:57:48;18.00;90.90
43894;DHT22;29556;50.846;4.442;2022-10-31T16:00:31;18.00;90.90
43894;DHT22;29556;50.846;4.442;2022-10-31T16:03:19;17.90;90.90
43894;DHT22;29556;50.846;4.442;2022-10-31T16:05:48;17.80;90.90
43894;DHT22;29556;50.846;4.442;2022-10-31T16:08:44;17.80;91.00
43894;DHT22;29556;50.846;4.442;2022-10-31T16:13:41;17.70;91.10
43894;DHT22;29556;50.846;4.442;2022-10-31T16:16:17;17.60;91.20
43894;DHT22;29556;50.846;4.442;2022-10-31T16:18:45;17.60;91.20
43894;DHT22;29556;50.846;4.442;2022-10-31T16:21:13;17.60;91.20
43894;DHT22;29556;50.846;4.442;2022-10-31T16:23:44;17.50;91.20
43894;DHT22;29556;50.846;4.442;2022-10-31T16:26:15;17.50;91.20
43894;DHT22;29556;50.846;4.442;2022-10-31T16:28:54;17.50;91.20
43894;DHT22;29556;50.846;4.442;2022-10-31T16:31:38;17.40;91.20
43894;DHT22;29556;50.846;4.442;2022-10-31T16:34:15;17.30;91.20
43894;DHT22;29556;50.846;4.442;2022-10-31T16:36:42;17.30;91.20
43894;DHT22;29556;50.846;4.442;2022-10-31T16:39:09;17.30;91.30
43894;DHT22;29556;50.846;4.442;2022-10-31T16:41:38;17.20;91.30
43894;DHT22;29556;50.846;4.442;2022-10-31T16:44:12;17.10;91.20
43894;DHT22;29556;50.846;4.442;2022-10-31T16:46:39;17.10;91.30
43894;DHT22;29556;50.846;4.442;2022-10-31T16:49:08;17.00;91.30
43894;DHT22;29556;50.846;4.442;2022-10-31T16:51:35;17.00;91.30
43894;DHT22;29556;50.846;4.442;2022-10-31T16:54:00;16.90;91.30
43894;DHT22;29556;50.846;4.442;2022-10-31T16:56:29;16.90;91.30
43894;DHT22;29556;50.846;4.442;2022-10-31T16:58:56;16.90;91.30
43894;DHT22;29556;50.846;4.442;2022-10-31T17:01:22;16.90;91.40
43894;DHT22;29556;50.846;4.442;2022-10-31T17:03:47;16.80;91.30
43894;DHT22;29556;50.846;4.442;2022-10-31T17:06:13;16.80;91.40
43894;DHT22;29556;50.846;4.442;2022-10-31T17:08:39;16.70;91.40
43894;DHT22;29556;50.846;4.442;2022-10-31T17:11:05;16.70;91.40
43894;DHT22;29556;50.846;4.442;2022-10-31T17:13:34;16.60;91.50
43894;DHT22;29556;50.846;4.442;2022-10-31T17:16:03;16.60;91.50
43894;DHT22;29556;50.846;4.442;2022-10-31T17:18:31;16.60;91.50
43894;DHT22;29556;50.846;4.442;2022-10-31T17:20:59;16.50;91.60
43894;DHT22;29556;50.846;4.442;2022-10-31T17:23:25;16.50;91.60
43894;DHT22;29556;50.846;4.442;2022-10-31T17:25:51;16.50;91.60
43894;DHT22;29556;50.846;4.442;2022-10-31T17:28:16;16.50;91.70
43894;DHT22;29556;50.846;4.442;2022-10-31T17:30:43;16.50;91.70
43894;DHT22;29556;50.846;4.442;2022-10-31T17:33:12;16.40;91.70
43894;DHT22;29556;50.846;4.442;2022-10-31T17:35:41;16.40;91.70
43894;DHT22;29556;50.846;4.442;2022-10-31T17:38:09;16.40;91.70
43894;DHT22;29556;50.846;4.442;2022-10-31T17:40:36;16.40;91.70
43894;DHT22;29556;50.846;4.442;2022-10-31T17:43:02;16.30;91.80
43894;DHT22;29556;50.846;4.442;2022-10-31T17:45:28;16.30;91.90
43894;DHT22;29556;50.846;4.442;2022-10-31T17:47:54;16.30;91.90
43894;DHT22;29556;50.846;4.442;2022-10-31T17:50:22;16.30;92.10
43894;DHT22;29556;50.846;4.442;2022-10-31T17:52:48;16.30;92.10
43894;DHT22;29556;50.846;4.442;2022-10-31T17:55:14;16.30;92.00
43894;DHT22;29556;50.846;4.442;2022-10-31T17:57:45;16.30;92.10
43894;DHT22;29556;50.846;4.442;2022-10-31T18:00:14;16.30;92.10
43894;DHT22;29556;50.846;4.442;2022-10-31T18:02:40;16.30;92.10
43894;DHT22;29556;50.846;4.442;2022-10-31T18:05:09;16.30;92.20
43894;DHT22;29556;50.846;4.442;2022-10-31T18:07:35;16.40;92.20
43894;DHT22;29556;50.846;4.442;2022-10-31T18:10:01;16.40;92.10
43894;DHT22;29556;50.846;4.442;2022-10-31T18:12:27;16.30;92.00
43894;DHT22;29556;50.846;4.442;2022-10-31T18:14:56;16.30;91.90
43894;DHT22;29556;50.846;4.442;2022-10-31T18:17:22;16.40;92.00
43894;DHT22;29556;50.846;4.442;2022-10-31T18:19:47;16.50;92.30
43894;DHT22;29556;50.846;4.442;2022-10-31T18:22:13;16.50;91.90
43894;DHT22;29556;50.846;4.442;2022-10-31T18:24:40;16.50;91.90